createdAt,value
2023-01-30T00:00:42.445Z,22.60
2023-01-30T00:04:49.163Z,21.73
2023-01-30T00:08:55.838Z,22.45
2023-01-30T00:13:02.517Z,23.70
2023-01-30T00:17:09.176Z,21.98
2023-01-30T00:21:15.865Z,20.92
2023-01-30T00:25:22.612Z,23.87
2023-01-30T00:29:29.335Z,22.80
2023-01-30T00:33:37.532Z,23.98
2023-01-30T00:37:44.222Z,22.60
2023-01-30T00:42:09.446Z,21.70
2023-01-30T00:46:43.124Z,21.50
2023-01-30T00:50:49.829Z,21.10
2023-01-30T00:54:56.563Z,22.52
2023-01-30T00:59:03.355Z,22.83
2023-01-30T01:03:10.109Z,22.17
2023-01-30T01:07:16.840Z,21.58
2023-01-30T01:11:26.823Z,21.63
2023-01-30T01:15:33.876Z,22.35
2023-01-30T01:19:40.565Z,21.65
2023-01-30T01:23:52.527Z,24.10
2023-01-30T01:27:59.214Z,21.85
2023-01-30T01:32:05.962Z,21.92
2023-01-30T01:36:20.038Z,22.85
2023-01-30T01:40:54.773Z,21.98
2023-01-30T01:45:17.398Z,21.92
2023-01-30T01:53:51.162Z,22.33
2023-01-30T01:58:09.311Z,20.52
2023-01-30T02:02:17.188Z,19.67
2023-01-30T02:06:24.096Z,19.73
2023-01-30T02:10:50.757Z,20.02
2023-01-30T02:14:59.010Z,21.52
2023-01-30T02:19:32.653Z,19.00
2023-01-30T02:24:05.676Z,18.02
2023-01-30T02:28:31.368Z,17.05
2023-01-30T02:33:01.990Z,14.93
2023-01-30T02:37:20.945Z,13.10
2023-01-30T02:41:40.917Z,10.65
2023-01-30T02:46:00.256Z,10.95
2023-01-30T02:50:41.702Z,9.80
2023-01-30T02:54:48.388Z,8.77
2023-01-30T02:59:01.822Z,9.63
2023-01-30T03:03:28.210Z,7.65
2023-01-30T03:07:57.960Z,7.30
2023-01-30T03:12:15.514Z,7.30
2023-01-30T03:16:41.587Z,8.32
2023-01-30T03:20:48.620Z,6.07
2023-01-30T03:24:55.303Z,5.03
2023-01-30T03:29:02.359Z,5.05
2023-01-30T03:33:09.247Z,4.15
2023-01-30T03:37:15.930Z,4.03
2023-01-30T03:41:22.617Z,4.70
2023-01-30T03:45:29.303Z,4.75
2023-01-30T03:49:36.005Z,3.90
2023-01-30T03:53:42.741Z,3.95
2023-01-30T03:57:49.420Z,3.97
2023-01-30T04:01:56.102Z,5.25
2023-01-30T04:06:02.828Z,5.22
2023-01-30T04:10:10.506Z,4.38
2023-01-30T04:14:17.204Z,4.53
2023-01-30T04:18:23.928Z,5.28
2023-01-30T04:22:31.064Z,5.00
2023-01-30T04:26:37.789Z,4.38
2023-01-30T04:30:44.555Z,4.28
2023-01-30T04:34:51.253Z,3.88
2023-01-30T04:38:58.271Z,5.53
2023-01-30T04:43:04.932Z,5.13
2023-01-30T04:47:11.662Z,3.80
2023-01-30T04:51:18.403Z,4.65
2023-01-30T04:55:25.058Z,5.25
2023-01-30T04:59:31.919Z,3.65
2023-01-30T05:03:38.596Z,3.08
2023-01-30T05:07:45.278Z,3.40
2023-01-30T05:11:51.923Z,2.90
2023-01-30T05:15:58.629Z,2.45
2023-01-30T05:20:09.902Z,2.08
2023-01-30T05:24:16.617Z,2.03
2023-01-30T05:28:23.317Z,2.20
2023-01-30T05:32:31.107Z,2.42
2023-01-30T05:36:38.072Z,1.65
2023-01-30T05:40:44.773Z,1.67
2023-01-30T05:44:51.444Z,1.45
2023-01-30T05:48:58.118Z,1.27
2023-01-30T05:53:04.776Z,2.30
2023-01-30T05:57:12.632Z,1.00
2023-01-30T06:01:20.279Z,0.85
2023-01-30T06:05:26.969Z,2.08
2023-01-30T06:09:33.654Z,0.90
2023-01-30T06:13:41.629Z,1.25
2023-01-30T06:17:48.307Z,0.80
2023-01-30T06:21:55.023Z,1.02
2023-01-30T06:26:03.686Z,0.50
2023-01-30T06:30:12.314Z,2.88
2023-01-30T06:34:19.009Z,2.63
2023-01-30T06:38:26.291Z,1.50
2023-01-30T06:42:33.062Z,0.82
2023-01-30T06:46:39.724Z,1.17
2023-01-30T06:50:48.011Z,0.90
2023-01-30T06:54:54.817Z,1.00
2023-01-30T06:59:01.624Z,1.33
2023-01-30T07:03:13.858Z,0.88
2023-01-30T07:07:20.671Z,0.90
2023-01-30T07:11:27.915Z,1.85
2023-01-30T07:15:34.754Z,1.88
2023-01-30T07:19:42.079Z,1.10
2023-01-30T07:23:48.964Z,0.82
2023-01-30T07:28:01.428Z,1.00
2023-01-30T07:32:13.592Z,0.93
2023-01-30T07:36:20.283Z,1.50
2023-01-30T07:40:27.306Z,1.85
2023-01-30T07:44:34.255Z,1.25
2023-01-30T07:48:40.934Z,0.98
2023-01-30T07:52:47.802Z,1.58
2023-01-30T07:56:54.484Z,1.52
2023-01-30T08:01:01.567Z,2.47
2023-01-30T08:05:08.806Z,1.85
2023-01-30T08:09:15.521Z,2.20
2023-01-30T08:13:22.214Z,1.75
2023-01-30T08:17:28.881Z,1.23
2023-01-30T08:21:35.585Z,1.55
2023-01-30T08:25:42.256Z,2.22
2023-01-30T08:29:48.951Z,2.35
2023-01-30T08:33:55.619Z,1.63
2023-01-30T08:38:03.436Z,1.33
2023-01-30T08:42:10.112Z,1.85
2023-01-30T08:46:17.432Z,2.08
2023-01-30T08:50:24.130Z,1.02
2023-01-30T08:54:33.186Z,1.05
2023-01-30T08:58:41.179Z,1.70
2023-01-30T09:02:47.963Z,1.63
2023-01-30T09:06:55.133Z,1.92
2023-01-30T09:11:05.143Z,1.63
2023-01-30T09:15:12.405Z,1.83
2023-01-30T09:19:19.082Z,2.85
2023-01-30T09:23:25.742Z,1.75
2023-01-30T09:27:32.574Z,2.20
2023-01-30T09:31:39.655Z,2.13
2023-01-30T09:35:50.553Z,0.88
2023-01-30T09:39:57.235Z,1.20
2023-01-30T09:44:31.011Z,2.03
2023-01-30T09:48:55.306Z,2.22
2023-01-30T09:53:28.908Z,1.83
2023-01-30T09:57:36.247Z,1.98
2023-01-30T10:01:54.243Z,2.20
2023-01-30T10:06:04.921Z,2.45
2023-01-30T10:10:26.036Z,1.75
2023-01-30T10:14:52.455Z,1.92
2023-01-30T10:19:35.939Z,1.63
2023-01-30T10:23:51.872Z,1.30
2023-01-30T10:28:26.976Z,1.75
2023-01-30T10:32:39.031Z,2.08
2023-01-30T10:37:09.902Z,1.20
2023-01-30T10:41:26.770Z,2.47
2023-01-30T10:45:49.266Z,0.93
2023-01-30T10:50:11.584Z,1.80
2023-01-30T10:54:28.911Z,2.25
2023-01-30T10:58:59.259Z,1.60
2023-01-30T11:03:33.957Z,1.10
2023-01-30T11:07:42.143Z,1.52
2023-01-30T11:11:50.901Z,1.15
2023-01-30T11:16:09.365Z,1.45
2023-01-30T11:20:20.686Z,1.63
2023-01-30T11:24:41.342Z,2.03
2023-01-30T11:28:49.074Z,2.28
2023-01-30T11:33:21.832Z,2.78
2023-01-30T11:37:33.231Z,1.27
2023-01-30T11:41:56.533Z,1.92
2023-01-30T11:46:03.691Z,1.65
2023-01-30T11:50:20.865Z,0.88
2023-01-30T11:54:39.505Z,1.27
2023-01-30T11:59:11.847Z,3.70
2023-01-30T12:03:25.619Z,2.20
2023-01-30T12:07:34.922Z,1.58
2023-01-30T12:11:45.083Z,1.45
2023-01-30T12:16:13.329Z,2.47
2023-01-30T12:20:30.657Z,1.33
2023-01-30T12:24:46.012Z,1.08
2023-01-30T12:28:55.334Z,2.25
2023-01-30T12:33:04.932Z,1.42
2023-01-30T12:37:14.671Z,1.77
2023-01-30T12:41:36.680Z,1.63
2023-01-30T12:45:55.415Z,1.48
2023-01-30T12:50:21.165Z,2.22
2023-01-30T12:54:58.009Z,1.25
2023-01-30T12:59:14.670Z,1.80
2023-01-30T13:03:29.267Z,1.80
2023-01-30T13:07:59.356Z,2.03
2023-01-30T13:12:17.899Z,1.10
2023-01-30T13:16:41.878Z,2.10
2023-01-30T13:21:21.836Z,3.30
2023-01-30T13:25:50.105Z,2.45
2023-01-30T13:29:59.170Z,1.20
2023-01-30T13:34:20.636Z,1.73
2023-01-30T13:38:29.814Z,3.10
2023-01-30T13:43:09.785Z,1.23
2023-01-30T13:47:41.255Z,1.15
2023-01-30T13:51:49.396Z,1.00
2023-01-30T13:56:02.070Z,2.20
2023-01-30T14:00:31.657Z,1.58
2023-01-30T14:04:41.353Z,1.77
2023-01-30T14:08:50.013Z,1.77
2023-01-30T14:13:05.830Z,1.48
2023-01-30T14:17:17.201Z,2.05
2023-01-30T14:21:25.332Z,1.38
2023-01-30T14:25:35.803Z,2.45
2023-01-30T14:29:42.504Z,1.35
2023-01-30T14:33:51.682Z,1.67
2023-01-30T14:38:16.063Z,1.48
2023-01-30T14:42:26.103Z,1.23
2023-01-30T14:46:32.782Z,1.10
2023-01-30T14:50:39.561Z,2.60
2023-01-30T14:54:50.566Z,1.38
2023-01-30T14:59:02.754Z,1.38
2023-01-30T15:03:20.336Z,1.55
2023-01-30T15:07:50.033Z,1.05
2023-01-30T15:12:19.820Z,1.33
2023-01-30T15:17:05.520Z,2.03
2023-01-30T15:21:40.888Z,2.05
2023-01-30T15:25:47.498Z,1.67
2023-01-30T15:30:06.227Z,1.65
2023-01-30T15:34:20.397Z,0.80
2023-01-30T15:38:34.274Z,2.13
2023-01-30T15:43:23.930Z,1.83
2023-01-30T15:47:59.529Z,3.83
2023-01-30T15:52:11.925Z,2.00
2023-01-30T15:56:23.385Z,1.30
2023-01-30T16:00:33.380Z,1.67
2023-01-30T16:04:40.169Z,1.48
2023-01-30T16:09:06.099Z,1.58
2023-01-30T16:13:12.869Z,1.33
2023-01-30T16:17:20.093Z,2.58
2023-01-30T16:21:34.167Z,2.08
2023-01-30T16:25:46.103Z,2.13
2023-01-30T16:29:57.989Z,3.15
2023-01-30T16:34:05.001Z,2.08
2023-01-30T16:38:36.116Z,2.20
2023-01-30T16:42:58.802Z,1.30
2023-01-30T16:51:38.375Z,1.92
2023-01-30T16:55:58.852Z,2.50
2023-01-30T17:00:10.168Z,1.95
2023-01-30T17:04:22.016Z,1.63
2023-01-30T17:08:31.484Z,1.42
2023-01-30T17:12:42.938Z,1.30
2023-01-30T17:17:02.006Z,1.60
2023-01-30T17:21:14.165Z,1.10
2023-01-30T17:25:35.756Z,1.25
2023-01-30T17:29:43.956Z,2.60
2023-01-30T17:33:50.874Z,1.92
2023-01-30T17:38:05.311Z,0.90
2023-01-30T17:42:13.573Z,1.40
2023-01-30T17:46:23.766Z,1.75
2023-01-30T17:50:30.536Z,2.28
2023-01-30T17:54:37.226Z,1.90
2023-01-30T17:58:43.937Z,2.20
2023-01-30T18:02:50.715Z,1.65
2023-01-30T18:07:04.314Z,1.17
2023-01-30T18:11:12.053Z,1.73
2023-01-30T18:15:19.226Z,1.40
2023-01-30T18:19:28.934Z,2.03
2023-01-30T18:23:37.220Z,1.42
2023-01-30T18:27:44.884Z,2.58
2023-01-30T18:31:51.644Z,2.13
2023-01-30T18:35:58.397Z,1.38
2023-01-30T18:40:05.555Z,1.65
2023-01-30T18:44:13.017Z,1.65
2023-01-30T18:48:19.704Z,1.35
2023-01-30T18:52:27.296Z,2.83
2023-01-30T18:56:35.062Z,2.75
2023-01-30T19:00:41.732Z,0.80
2023-01-30T19:04:48.395Z,1.77
2023-01-30T19:08:56.505Z,1.40
2023-01-30T19:13:22.023Z,1.08
2023-01-30T19:17:29.449Z,1.42
2023-01-30T19:21:36.306Z,1.58
2023-01-30T19:25:43.001Z,1.60
2023-01-30T19:29:50.413Z,1.13
2023-01-30T19:34:00.605Z,1.87
2023-01-30T19:38:07.478Z,1.80
2023-01-30T19:42:16.315Z,1.50
2023-01-30T19:46:23.064Z,1.97
2023-01-30T19:50:29.855Z,2.30
2023-01-30T19:54:36.538Z,1.30
2023-01-30T19:58:43.371Z,2.10
2023-01-30T20:02:51.285Z,1.08
2023-01-30T20:06:58.273Z,1.73
2023-01-30T20:11:07.716Z,1.43
2023-01-30T20:15:14.403Z,2.60
2023-01-30T20:19:21.342Z,2.47
2023-01-30T20:23:28.008Z,1.67
2023-01-30T20:27:34.745Z,1.90
2023-01-30T20:31:41.513Z,2.23
2023-01-30T20:35:48.197Z,1.50
2023-01-30T20:39:55.348Z,1.08
2023-01-30T20:44:02.230Z,1.17
2023-01-30T20:48:08.937Z,1.40
2023-01-30T20:52:15.607Z,2.17
2023-01-30T20:56:23.360Z,0.90
2023-01-30T21:00:30.052Z,1.43
2023-01-30T21:04:37.466Z,2.13
2023-01-30T21:08:44.328Z,1.77
2023-01-30T21:12:50.969Z,0.60
2023-01-30T21:16:57.673Z,1.00
2023-01-30T21:21:05.579Z,1.10
2023-01-30T21:25:12.284Z,1.17
2023-01-30T21:29:21.894Z,0.73
2023-01-30T21:33:29.051Z,0.73
2023-01-30T21:37:54.589Z,1.90
2023-01-30T21:42:01.347Z,1.57
2023-01-30T21:46:08.536Z,0.80
2023-01-30T21:50:15.667Z,0.70
2023-01-30T21:54:23.004Z,1.50
2023-01-30T21:58:32.188Z,1.73
2023-01-30T22:02:38.990Z,1.20
2023-01-30T22:06:45.875Z,1.92
2023-01-30T22:11:02.775Z,1.10
2023-01-30T22:15:09.821Z,2.07
2023-01-30T22:19:16.512Z,1.97
2023-01-30T22:23:23.371Z,1.07
2023-01-30T22:27:30.087Z,1.43
2023-01-30T22:31:38.616Z,2.27
2023-01-30T22:35:51.155Z,1.80
2023-01-30T22:39:57.855Z,2.67
2023-01-30T22:44:07.767Z,2.03
2023-01-30T22:48:16.047Z,1.40
2023-01-30T22:52:22.750Z,1.63
2023-01-30T22:56:36.301Z,1.50
2023-01-30T23:00:42.964Z,2.93
2023-01-30T23:04:50.461Z,1.37
2023-01-30T23:08:58.739Z,1.80
2023-01-30T23:13:08.483Z,1.60
2023-01-30T23:17:33.783Z,1.30
2023-01-30T23:21:45.515Z,1.27
2023-01-30T23:25:52.555Z,1.60
2023-01-30T23:29:59.224Z,0.90
2023-01-30T23:34:11.848Z,1.40
2023-01-30T23:42:28.699Z,1.13
2023-01-30T23:46:39.130Z,2.50
2023-01-30T23:50:45.882Z,1.47
2023-01-30T23:54:52.550Z,1.53
2023-01-30T23:58:59.591Z,1.03
